WXM80 ListenWXM80 Stop

You find our weather info also at:

UK Metoffice

WeatherCloud

Weather Underground

Northeastern Weather Network

AWEKAS

Citizen Weather Observer Program (CWOP)

HAMweather, WeatherForYou, PWS Weather


Weather Underground History page Text

Daily Summary for February 17, 2016 Units:  English    Metric   Both
« Previous Day
Next Day »
Daily Weekly Monthly Yearly Custom
  High: Low: Average:
Temperature: 41.0 °F 34.9 °F 37.5 °F
Dew Point: 32.0 °F 26.6 °F 29.7 °F
Humidity: 83 % 66 % 74 %
Wind Speed: 7.8 mph 0.0 mph 3.5 mph
Wind Gust: 16.1 mph - -
Wind:- - West
Pressure: 30.17 in 29.74 in -
Precipitation: 0.00 in    
Historical Graphs
 
 
Tabular Data for February 17, 2016
Time Temperature Dew Point Pressure Wind Wind Speed Wind Gust Humidity Rainfall Rate (Hourly)
00:04 37.4 °F 31.5 °F 29.75 in NW 4.5 mph 9.0 mph 79 % 0.00 in
00:09 37.3 °F 31.4 °F 29.75 in SW 5.2 mph 7.0 mph 79 % 0.00 in
00:14 37.2 °F 31.6 °F 29.75 in West 5.2 mph 8.1 mph 80 % 0.00 in
00:19 37.1 °F 31.5 °F 29.74 in West 5.5 mph 16.1 mph 80 % 0.00 in
00:24 37.0 °F 31.4 °F 29.75 in WNW 5.6 mph 8.0 mph 80 % 0.00 in
00:30 36.9 °F 31.3 °F 29.75 in NW 6.2 mph 11.5 mph 80 % 0.00 in
00:35 36.9 °F 31.3 °F 29.75 in WSW 5.0 mph 9.2 mph 80 % 0.00 in
00:40 36.8 °F 30.9 °F 29.75 in WSW 6.6 mph 11.5 mph 79 % 0.00 in
00:45 36.7 °F 31.1 °F 29.75 in West 4.0 mph 5.8 mph 80 % 0.00 in
00:50 36.6 °F 31.0 °F 29.75 in West 3.1 mph 5.8 mph 80 % 0.00 in
00:55 36.5 °F 30.9 °F 29.75 in WNW 3.2 mph 7.0 mph 80 % 0.00 in
01:00 36.4 °F 30.8 °F 29.75 in West 5.3 mph 9.2 mph 80 % 0.00 in
01:05 36.4 °F 30.8 °F 29.75 in WNW 2.2 mph 4.6 mph 80 % 0.00 in
01:10 36.3 °F 30.7 °F 29.76 in West 3.7 mph 9.2 mph 80 % 0.00 in
01:15 36.3 °F 31.0 °F 29.76 in WSW 2.2 mph 5.8 mph 81 % 0.00 in
01:21 36.4 °F 31.1 °F 29.76 in WSW 4.0 mph 11.5 mph 81 % 0.00 in
01:26 36.4 °F 31.1 °F 29.76 in West 3.9 mph 6.9 mph 81 % 0.00 in
01:31 36.4 °F 31.1 °F 29.76 in West 4.3 mph 6.9 mph 81 % 0.00 in
01:36 36.4 °F 31.1 °F 29.76 in West 2.5 mph 7.0 mph 81 % 0.00 in
01:41 36.3 °F 31.0 °F 29.76 in West 6.4 mph 9.0 mph 81 % 0.00 in
01:46 36.3 °F 31.0 °F 29.76 in WNW 3.1 mph 8.1 mph 81 % 0.00 in
01:51 36.3 °F 31.0 °F 29.76 in West 1.9 mph 5.8 mph 81 % 0.00 in
01:56 36.3 °F 31.0 °F 29.76 in WNW 0.7 mph 4.6 mph 81 % 0.00 in
02:01 36.3 °F 31.0 °F 29.76 in WNW 2.9 mph 10.4 mph 81 % 0.00 in
02:06 36.3 °F 31.0 °F 29.75 in WNW 5.5 mph 10.0 mph 81 % 0.00 in
02:12 36.4 °F 31.1 °F 29.75 in WSW 4.4 mph 9.2 mph 81 % 0.00 in
02:17 36.4 °F 31.1 °F 29.75 in WNW 4.8 mph 6.9 mph 81 % 0.00 in
02:22 36.4 °F 30.8 °F 29.75 in WNW 5.7 mph 9.2 mph 80 % 0.00 in
02:27 36.5 °F 30.9 °F 29.75 in NW 4.8 mph 9.2 mph 80 % 0.00 in
02:32 36.5 °F 30.9 °F 29.75 in WNW 4.5 mph 6.9 mph 80 % 0.00 in
02:37 36.5 °F 30.9 °F 29.76 in WNW 4.3 mph 8.1 mph 80 % 0.00 in
02:42 36.5 °F 30.9 °F 29.76 in WNW 3.5 mph 5.8 mph 80 % 0.00 in
02:47 36.5 °F 30.9 °F 29.76 in West 1.8 mph 6.9 mph 80 % 0.00 in
02:52 36.5 °F 30.9 °F 29.77 in WSW 2.0 mph 4.6 mph 80 % 0.00 in
02:58 36.5 °F 30.9 °F 29.78 in WNW 3.6 mph 10.4 mph 80 % 0.00 in
03:08 36.5 °F 30.9 °F 29.78 in WSW 2.5 mph 6.9 mph 80 % 0.00 in
03:13 36.5 °F 30.9 °F 29.77 in WNW 3.7 mph 5.8 mph 80 % 0.00 in
03:18 36.5 °F 30.9 °F 29.78 in North 2.9 mph 5.8 mph 80 % 0.00 in
03:23 36.5 °F 30.9 °F 29.79 in West 3.4 mph 5.8 mph 80 % 0.00 in
03:28 36.6 °F 31.0 °F 29.80 in WSW 1.5 mph 6.9 mph 80 % 0.00 in
03:33 36.6 °F 31.0 °F 29.80 in West 3.0 mph 4.6 mph 80 % 0.00 in
03:38 36.6 °F 31.0 °F 29.80 in WSW 3.2 mph 3.5 mph 80 % 0.00 in
03:43 36.7 °F 31.1 °F 29.80 in West 0.5 mph 3.5 mph 80 % 0.00 in
03:49 36.7 °F 31.1 °F 29.80 in West 2.1 mph 5.0 mph 80 % 0.00 in
03:54 36.7 °F 31.1 °F 29.80 in NW 0.8 mph 9.2 mph 80 % 0.00 in
03:59 36.6 °F 31.0 °F 29.81 in West 2.6 mph 5.8 mph 80 % 0.00 in
04:04 36.6 °F 31.0 °F 29.81 in WNW 2.8 mph 4.6 mph 80 % 0.00 in
04:09 36.7 °F 31.1 °F 29.82 in WNW 3.3 mph 5.8 mph 80 % 0.00 in
04:14 36.6 °F 31.0 °F 29.81 in WNW 2.8 mph 5.8 mph 80 % 0.00 in
04:19 36.6 °F 31.0 °F 29.83 in WNW 2.9 mph 4.6 mph 80 % 0.00 in
04:24 36.6 °F 31.0 °F 29.83 in Calm   1.0 mph 80 % 0.00 in
04:29 36.6 °F 31.0 °F 29.84 in WNW 1.4 mph 3.0 mph 80 % 0.00 in
04:34 36.6 °F 31.0 °F 29.84 in West 0.6 mph 3.5 mph 80 % 0.00 in
04:40 36.6 °F 31.0 °F 29.85 in West 3.8 mph 5.8 mph 80 % 0.00 in
04:45 36.6 °F 31.0 °F 29.85 in West 1.6 mph 3.5 mph 80 % 0.00 in
04:50 36.6 °F 31.0 °F 29.85 in NW 0.9 mph 3.5 mph 80 % 0.00 in
04:55 36.6 °F 31.0 °F 29.85 in West 1.1 mph 3.5 mph 80 % 0.00 in
05:00 36.6 °F 31.0 °F 29.85 in WNW 1.8 mph 3.5 mph 80 % 0.00 in
05:05 36.6 °F 31.0 °F 29.85 in West 0.3 mph 1.2 mph 80 % 0.00 in
05:10 36.5 °F 30.9 °F 29.85 in West 1.3 mph 5.0 mph 80 % 0.00 in
05:15 36.6 °F 31.0 °F 29.86 in West 1.8 mph 4.6 mph 80 % 0.00 in
05:20 36.6 °F 31.0 °F 29.86 in West 1.6 mph 3.5 mph 80 % 0.00 in
05:25 36.6 °F 31.0 °F 29.85 in West 2.2 mph 3.5 mph 80 % 0.00 in
05:31 36.6 °F 31.0 °F 29.85 in WSW 1.7 mph 3.0 mph 80 % 0.00 in
05:36 36.6 °F 31.0 °F 29.85 in West 1.3 mph 3.5 mph 80 % 0.00 in
05:41 36.5 °F 30.9 °F 29.86 in WNW 1.3 mph 3.5 mph 80 % 0.00 in
05:46 36.5 °F 31.2 °F 29.86 in WNW 1.1 mph 3.5 mph 81 % 0.00 in
05:51 36.4 °F 31.1 °F 29.85 in WNW 1.7 mph 5.0 mph 81 % 0.00 in
05:56 36.3 °F 31.0 °F 29.85 in WNW 2.2 mph 4.6 mph 81 % 0.00 in
06:01 36.1 °F 30.8 °F 29.86 in WSW 2.0 mph 5.0 mph 81 % 0.00 in
06:06 36.1 °F 31.1 °F 29.85 in WSW 0.9 mph 5.8 mph 82 % 0.00 in
06:11 36.0 °F 31.0 °F 29.85 in WNW 1.9 mph 4.6 mph 82 % 0.00 in
06:16 35.9 °F 30.9 °F 29.85 in WNW 1.8 mph 3.5 mph 82 % 0.00 in
06:22 35.8 °F 30.8 °F 29.86 in WSW 1.7 mph 2.3 mph 82 % 0.00 in
06:27 35.6 °F 30.6 °F 29.86 in NW 1.1 mph 3.5 mph 82 % 0.00 in
06:32 35.5 °F 30.5 °F 29.86 in WNW 2.3 mph 3.5 mph 82 % 0.00 in
06:37 35.3 °F 30.4 °F 29.86 in WNW 0.7 mph 3.5 mph 82 % 0.00 in
06:47 35.1 °F 30.5 °F 29.88 in West 1.0 mph 3.5 mph 83 % 0.00 in
06:52 35.0 °F 30.4 °F 29.88 in WSW 1.4 mph 3.5 mph 83 % 0.00 in
06:57 35.0 °F 30.4 °F 29.88 in WNW 2.2 mph 3.5 mph 83 % 0.00 in
07:02 34.9 °F 30.3 °F 29.89 in West 2.6 mph 5.0 mph 83 % 0.00 in
07:07 35.0 °F 30.4 °F 29.89 in SW 1.9 mph 3.5 mph 83 % 0.00 in
07:13 35.0 °F 30.4 °F 29.89 in West 2.7 mph 3.5 mph 83 % 0.00 in
07:18 35.2 °F 30.6 °F 29.89 in WNW 2.5 mph 3.5 mph 83 % 0.00 in
07:23 35.3 °F 30.7 °F 29.90 in WSW 1.3 mph 3.5 mph 83 % 0.00 in
07:28 35.4 °F 30.8 °F 29.90 in WSW 1.8 mph 3.5 mph 83 % 0.00 in
07:33 35.5 °F 30.5 °F 29.90 in WSW 0.7 mph 2.3 mph 82 % 0.00 in
07:38 35.7 °F 30.7 °F 29.90 in WNW 1.9 mph 3.5 mph 82 % 0.00 in
07:43 35.9 °F 30.6 °F 29.91 in West 0.3 mph 2.3 mph 81 % 0.00 in
07:48 36.0 °F 30.7 °F 29.92 in SW 3.7 mph 5.8 mph 81 % 0.00 in
07:53 36.1 °F 30.8 °F 29.92 in West 5.1 mph 6.0 mph 81 % 0.00 in
07:58 36.3 °F 31.0 °F 29.92 in WSW 0.9 mph 4.6 mph 81 % 0.00 in
08:04 36.4 °F 31.1 °F 29.92 in WSW 0.4 mph 5.8 mph 81 % 0.00 in
08:14 36.5 °F 30.9 °F 29.91 in Calm     80 % 0.00 in
08:19 36.6 °F 31.0 °F 29.91 in WNW 0.3 mph 2.3 mph 80 % 0.00 in
08:24 36.7 °F 31.4 °F 29.92 in WNW 1.5 mph 3.5 mph 81 % 0.00 in
08:29 36.9 °F 31.3 °F 29.92 in WSW 2.6 mph 3.5 mph 80 % 0.00 in
08:34 37.3 °F 31.4 °F 29.92 in NW 3.1 mph 4.6 mph 79 % 0.00 in
08:39 37.6 °F 31.7 °F 29.93 in WSW 2.1 mph 3.5 mph 79 % 0.00 in
08:44 37.9 °F 31.7 °F 29.93 in WSW 1.6 mph 3.5 mph 78 % 0.00 in
08:49 38.1 °F 31.8 °F 29.93 in SW 3.5 mph 6.0 mph 78 % 0.00 in
08:55 38.3 °F 32.0 °F 29.93 in WSW 3.3 mph 6.0 mph 78 % 0.00 in
09:00 38.4 °F 31.8 °F 29.93 in SW 3.6 mph 5.8 mph 77 % 0.00 in
09:10 38.5 °F 31.6 °F 29.94 in WSW 3.6 mph 5.8 mph 76 % 0.00 in
09:15 38.6 °F 32.0 °F 29.94 in WSW 3.9 mph 6.9 mph 77 % 0.00 in
09:20 38.7 °F 31.8 °F 29.95 in WSW 4.4 mph 9.2 mph 76 % 0.00 in
09:25 38.7 °F 31.8 °F 29.95 in WSW 3.3 mph 5.8 mph 76 % 0.00 in
09:30 38.8 °F 31.9 °F 29.95 in SW 6.0 mph 7.0 mph 76 % 0.00 in
09:35 38.8 °F 31.9 °F 29.95 in WSW 2.4 mph 9.2 mph 76 % 0.00 in
09:40 38.9 °F 32.0 °F 29.95 in West 4.0 mph 8.1 mph 76 % 0.00 in
09:46 39.0 °F 31.7 °F 29.95 in West 4.0 mph 5.0 mph 75 % 0.00 in
09:54 39.1 °F 31.5 °F 29.96 in WSW 5.0 mph 5.0 mph 74 % 0.00 in
10:04 39.1 °F 31.8 °F 29.95 in WNW 4.9 mph 6.9 mph 75 % 0.00 in
10:09 39.2 °F 31.6 °F 29.95 in WNW 1.8 mph 5.8 mph 74 % 0.00 in
10:14 39.4 °F 31.8 °F 29.95 in WSW 3.6 mph 8.1 mph 74 % 0.00 in
10:19 39.6 °F 31.7 °F 29.95 in WSW 4.0 mph 6.9 mph 73 % 0.00 in
10:24 39.7 °F 31.8 °F 29.95 in SW 1.5 mph 4.6 mph 73 % 0.00 in
10:29 39.8 °F 31.5 °F 29.95 in WSW 3.6 mph 7.0 mph 72 % 0.00 in
10:34 39.9 °F 31.9 °F 29.95 in West 1.3 mph 8.1 mph 73 % 0.00 in
10:40 40.0 °F 31.7 °F 29.96 in WSW 2.7 mph 8.1 mph 72 % 0.00 in
10:45 40.0 °F 31.7 °F 29.96 in WNW 2.1 mph 4.6 mph 72 % 0.00 in
10:55 40.2 °F 31.5 °F 29.95 in WNW 2.4 mph 4.6 mph 71 % 0.00 in
11:00 40.3 °F 31.6 °F 29.96 in West 2.0 mph 5.8 mph 71 % 0.00 in
11:05 40.5 °F 31.5 °F 29.96 in West 3.2 mph 8.1 mph 70 % 0.00 in
11:10 40.6 °F 31.6 °F 29.96 in WNW 3.6 mph 9.2 mph 70 % 0.00 in
11:15 40.7 °F 31.3 °F 29.96 in West 2.1 mph 4.6 mph 69 % 0.00 in
11:20 40.7 °F 31.7 °F 29.96 in West 1.3 mph 4.6 mph 70 % 0.00 in
11:25 40.9 °F 31.5 °F 29.96 in NW 2.5 mph 3.0 mph 69 % 0.00 in
11:31 41.0 °F 31.6 °F 29.96 in West 3.7 mph 6.9 mph 69 % 0.00 in
11:36 41.0 °F 31.6 °F 29.96 in WSW 4.2 mph 6.9 mph 69 % 0.00 in
11:41 40.9 °F 30.8 °F 29.96 in WNW 5.2 mph 8.1 mph 67 % 0.00 in
11:46 40.8 °F 31.1 °F 29.96 in SW 2.5 mph 6.0 mph 68 % 0.00 in
11:51 40.7 °F 31.0 °F 29.96 in WNW 3.1 mph 7.0 mph 68 % 0.00 in
11:56 40.6 °F 30.5 °F 29.96 in WNW 5.3 mph 10.4 mph 67 % 0.00 in
12:01 40.6 °F 31.2 °F 29.95 in WNW 2.6 mph 5.8 mph 69 % 0.00 in
12:06 40.6 °F 30.9 °F 29.95 in WSW 3.9 mph 10.4 mph 68 % 0.00 in
12:11 40.7 °F 30.6 °F 29.95 in WNW 5.6 mph 11.5 mph 67 % 0.00 in
12:16 40.8 °F 30.7 °F 29.95 in West 5.1 mph 6.0 mph 67 % 0.00 in
12:22 40.8 °F 30.7 °F 29.95 in NW 5.4 mph 10.4 mph 67 % 0.00 in
12:27 40.9 °F 30.4 °F 29.95 in West 7.8 mph 11.5 mph 66 % 0.00 in
12:32 40.8 °F 30.7 °F 29.96 in WSW 4.5 mph 6.9 mph 67 % 0.00 in
12:37 40.6 °F 30.5 °F 29.96 in WNW 3.2 mph 7.0 mph 67 % 0.00 in
12:42 40.5 °F 30.4 °F 29.97 in West 5.5 mph 11.5 mph 67 % 0.00 in
12:47 40.4 °F 30.3 °F 29.96 in WNW 4.8 mph 6.9 mph 67 % 0.00 in
12:52 40.2 °F 30.1 °F 29.96 in NW 5.3 mph 11.5 mph 67 % 0.00 in
12:57 40.1 °F 30.7 °F 29.96 in SW 2.3 mph 3.5 mph 69 % 0.00 in
13:02 40.1 °F 30.7 °F 29.96 in WSW 5.5 mph 11.5 mph 69 % 0.00 in
13:07 40.1 °F 30.4 °F 29.97 in West 3.3 mph 10.4 mph 68 % 0.00 in
13:13 40.2 °F 30.5 °F 29.97 in SW 4.6 mph 8.1 mph 68 % 0.00 in
13:18 40.2 °F 30.5 °F 29.97 in West 2.9 mph 7.0 mph 68 % 0.00 in
13:23 40.1 °F 30.0 °F 29.97 in WSW 5.4 mph 9.2 mph 67 % 0.00 in
13:28 39.9 °F 29.8 °F 29.97 in SW 2.6 mph 6.9 mph 67 % 0.00 in
13:33 39.8 °F 29.7 °F 29.97 in West 6.9 mph 10.4 mph 67 % 0.00 in
13:38 39.7 °F 29.6 °F 29.97 in WNW 3.7 mph 5.8 mph 67 % 0.00 in
13:43 39.6 °F 29.9 °F 29.97 in WSW 3.5 mph 8.1 mph 68 % 0.00 in
13:53 39.3 °F 29.6 °F 29.98 in WNW 5.4 mph 10.4 mph 68 % 0.00 in
13:58 39.2 °F 29.2 °F 29.98 in WSW 2.7 mph 6.9 mph 67 % 0.00 in
14:04 39.2 °F 29.5 °F 29.98 in WSW 4.8 mph 9.2 mph 68 % 0.00 in
14:09 39.2 °F 29.5 °F 29.98 in NW 2.9 mph 9.2 mph 68 % 0.00 in
14:14 39.3 °F 29.6 °F 29.98 in WSW 6.6 mph 9.2 mph 68 % 0.00 in
14:19 39.3 °F 29.6 °F 29.98 in West 7.2 mph 11.5 mph 68 % 0.00 in
14:24 39.3 °F 30.0 °F 29.98 in WNW 5.8 mph 12.7 mph 69 % 0.00 in
14:29 39.3 °F 29.3 °F 29.98 in WNW 6.5 mph 13.0 mph 67 % 0.00 in
14:34 39.3 °F 29.3 °F 29.98 in West 4.3 mph 9.2 mph 67 % 0.00 in
14:39 39.3 °F 29.3 °F 29.98 in NW 7.2 mph 11.5 mph 67 % 0.00 in
14:49 39.2 °F 28.8 °F 29.99 in West 5.7 mph 11.5 mph 66 % 0.00 in
14:55 39.2 °F 29.2 °F 29.99 in West 1.5 mph 3.5 mph 67 % 0.00 in
15:00 39.1 °F 29.1 °F 29.99 in WNW 2.9 mph 6.9 mph 67 % 0.00 in
15:05 39.1 °F 29.4 °F 30.00 in NW 4.2 mph 11.5 mph 68 % 0.00 in
15:10 39.1 °F 29.4 °F 30.00 in WSW 1.4 mph 6.9 mph 68 % 0.00 in
15:15 39.1 °F 29.4 °F 30.00 in NW 2.6 mph 5.8 mph 68 % 0.00 in
15:20 39.1 °F 29.4 °F 30.00 in NNW 3.6 mph 5.8 mph 68 % 0.00 in
15:25 39.1 °F 29.1 °F 30.00 in West 3.6 mph 6.9 mph 67 % 0.00 in
15:30 39.0 °F 29.3 °F 30.00 in NNW 2.6 mph 5.8 mph 68 % 0.00 in
15:35 39.0 °F 29.0 °F 30.00 in NW 3.5 mph 9.0 mph 67 % 0.00 in
15:40 39.0 °F 29.7 °F 30.00 in NNW 6.0 mph 8.1 mph 69 % 0.00 in
15:46 38.9 °F 29.6 °F 30.01 in NNW 4.5 mph 8.1 mph 69 % 0.00 in
15:51 38.9 °F 29.2 °F 30.01 in West 3.8 mph 8.1 mph 68 % 0.00 in
15:56 38.8 °F 29.1 °F 30.01 in WSW 4.5 mph 8.1 mph 68 % 0.00 in
16:01 38.7 °F 29.0 °F 30.01 in WNW 4.0 mph 9.2 mph 68 % 0.00 in
16:06 38.6 °F 29.3 °F 30.02 in NW 3.7 mph 6.9 mph 69 % 0.00 in
16:11 38.6 °F 28.9 °F 30.02 in NW 4.7 mph 10.0 mph 68 % 0.00 in
16:16 38.5 °F 28.9 °F 30.02 in NW 3.6 mph 6.9 mph 68 % 0.00 in
16:21 38.4 °F 29.1 °F 30.02 in WNW 2.6 mph 6.0 mph 69 % 0.00 in
16:26 38.3 °F 29.0 °F 30.02 in WNW 3.8 mph 13.8 mph 69 % 0.00 in
16:31 38.2 °F 28.9 °F 30.02 in WNW 6.4 mph 10.4 mph 69 % 0.00 in
16:37 38.1 °F 28.8 °F 30.02 in WNW 4.7 mph 8.1 mph 69 % 0.00 in
16:42 38.0 °F 28.7 °F 30.02 in North 3.9 mph 8.1 mph 69 % 0.00 in
16:47 37.9 °F 28.6 °F 30.02 in WNW 3.9 mph 9.2 mph 69 % 0.00 in
16:52 37.8 °F 28.5 °F 30.03 in WNW 4.0 mph 10.4 mph 69 % 0.00 in
16:57 37.7 °F 28.4 °F 30.03 in NW 4.2 mph 6.9 mph 69 % 0.00 in
17:02 37.7 °F 28.1 °F 30.04 in WNW 3.5 mph 8.1 mph 68 % 0.00 in
17:07 37.6 °F 28.0 °F 30.04 in SSW 4.5 mph 9.2 mph 68 % 0.00 in
17:12 37.5 °F 27.9 °F 30.04 in WNW 4.5 mph 8.1 mph 68 % 0.00 in
17:17 37.5 °F 27.9 °F 30.05 in NW 5.0 mph 11.5 mph 68 % 0.00 in
17:22 37.4 °F 27.8 °F 30.05 in West 2.4 mph 12.7 mph 68 % 0.00 in
17:28 37.3 °F 27.3 °F 30.05 in NW 5.2 mph 11.5 mph 67 % 0.00 in
17:33 37.3 °F 27.3 °F 30.05 in NNW 2.6 mph 8.1 mph 67 % 0.00 in
17:38 37.2 °F 27.2 °F 30.06 in West 3.7 mph 8.0 mph 67 % 0.00 in
17:43 37.1 °F 27.5 °F 30.06 in NW 4.3 mph 8.1 mph 68 % 0.00 in
17:48 37.1 °F 27.2 °F 30.07 in WNW 6.2 mph 11.5 mph 67 % 0.00 in
17:53 37.0 °F 27.1 °F 30.07 in North 3.6 mph 8.1 mph 67 % 0.00 in
17:58 37.0 °F 27.8 °F 30.07 in West 3.7 mph 6.0 mph 69 % 0.00 in
18:03 37.0 °F 27.8 °F 30.08 in West 3.0 mph 4.6 mph 69 % 0.00 in
18:14 36.9 °F 28.0 °F 30.09 in WNW 3.0 mph 5.8 mph 70 % 0.00 in
18:19 36.9 °F 27.7 °F 30.09 in NW 2.3 mph 8.1 mph 69 % 0.00 in
18:24 36.9 °F 28.0 °F 30.09 in WNW 4.9 mph 9.2 mph 70 % 0.00 in
18:29 36.9 °F 27.7 °F 30.10 in NW 1.3 mph 8.1 mph 69 % 0.00 in
18:39 36.9 °F 28.0 °F 30.10 in WNW 3.4 mph 6.0 mph 70 % 0.00 in
18:44 36.8 °F 27.9 °F 30.11 in NW 3.7 mph 6.9 mph 70 % 0.00 in
18:49 36.8 °F 27.6 °F 30.11 in WNW 5.8 mph 10.4 mph 69 % 0.00 in
18:54 36.9 °F 28.0 °F 30.11 in WNW 4.4 mph 6.9 mph 70 % 0.00 in
18:59 36.9 °F 27.7 °F 30.12 in WNW 4.1 mph 5.0 mph 69 % 0.00 in
19:05 36.9 °F 27.7 °F 30.12 in NW 6.0 mph 6.0 mph 69 % 0.00 in
19:10 36.9 °F 27.3 °F 30.12 in West 3.5 mph 11.5 mph 68 % 0.00 in
19:15 36.9 °F 27.0 °F 30.12 in WNW 7.1 mph 11.5 mph 67 % 0.00 in
19:20 37.0 °F 27.1 °F 30.12 in West 5.3 mph 10.4 mph 67 % 0.00 in
19:25 37.0 °F 27.1 °F 30.12 in WNW 5.4 mph 11.5 mph 67 % 0.00 in
19:30 37.0 °F 27.4 °F 30.12 in West 3.8 mph 4.6 mph 68 % 0.00 in
19:35 37.0 °F 27.4 °F 30.12 in SW 2.4 mph 6.0 mph 68 % 0.00 in
19:40 37.0 °F 27.1 °F 30.12 in NW 4.4 mph 11.5 mph 67 % 0.00 in
19:45 37.1 °F 27.2 °F 30.12 in NW 4.9 mph 10.4 mph 67 % 0.00 in
19:50 37.1 °F 27.2 °F 30.12 in WNW 3.7 mph 8.0 mph 67 % 0.00 in
19:56 37.1 °F 27.2 °F 30.13 in West 6.6 mph 12.7 mph 67 % 0.00 in
20:01 37.1 °F 27.2 °F 30.12 in SW 5.1 mph 11.5 mph 67 % 0.00 in
20:06 37.1 °F 27.2 °F 30.12 in WNW 2.2 mph 10.4 mph 67 % 0.00 in
20:11 37.1 °F 27.2 °F 30.12 in West 3.4 mph 7.0 mph 67 % 0.00 in
20:16 37.0 °F 27.4 °F 30.12 in West 2.8 mph 5.8 mph 68 % 0.00 in
20:21 37.0 °F 27.4 °F 30.13 in WNW 4.7 mph 6.9 mph 68 % 0.00 in
20:26 36.9 °F 27.0 °F 30.13 in WNW 4.5 mph 6.9 mph 67 % 0.00 in
20:31 36.9 °F 27.0 °F 30.12 in NW 3.8 mph 5.8 mph 67 % 0.00 in
20:36 36.9 °F 27.3 °F 30.12 in WSW 1.5 mph 3.5 mph 68 % 0.00 in
20:41 36.8 °F 27.2 °F 30.12 in WSW 5.5 mph 9.2 mph 68 % 0.00 in
20:47 36.8 °F 26.9 °F 30.12 in West 4.1 mph 6.9 mph 67 % 0.00 in
20:52 36.8 °F 26.9 °F 30.13 in WNW 3.7 mph 8.1 mph 67 % 0.00 in
20:57 36.8 °F 27.2 °F 30.13 in West 3.4 mph 6.9 mph 68 % 0.00 in
21:02 36.7 °F 27.1 °F 30.13 in WNW 5.5 mph 10.4 mph 68 % 0.00 in
21:07 36.6 °F 26.7 °F 30.13 in WNW 4.6 mph 9.0 mph 67 % 0.00 in
21:12 36.5 °F 26.9 °F 30.13 in NW 6.0 mph 8.1 mph 68 % 0.00 in
21:17 36.4 °F 26.8 °F 30.13 in West 1.9 mph 6.9 mph 68 % 0.00 in
21:19 36.4 °F 26.8 °F 30.13 in WSW 3.2 mph 5.8 mph 68 % 0.00 in
21:24 36.3 °F 26.7 °F 30.13 in West 4.7 mph 6.9 mph 68 % 0.00 in
21:29 36.2 °F 26.6 °F 30.14 in WNW 1.6 mph 5.8 mph 68 % 0.00 in
21:34 36.2 °F 26.6 °F 30.14 in SW 5.1 mph 6.0 mph 68 % 0.00 in
21:39 36.2 °F 27.0 °F 30.14 in WSW 5.1 mph 9.2 mph 69 % 0.00 in
21:44 36.1 °F 26.9 °F 30.14 in WSW 4.0 mph 10.4 mph 69 % 0.00 in
21:49 36.1 °F 26.9 °F 30.14 in SW 4.8 mph 8.1 mph 69 % 0.00 in
21:54 36.1 °F 26.9 °F 30.14 in WSW 6.8 mph 9.2 mph 69 % 0.00 in
21:59 36.1 °F 26.9 °F 30.14 in WSW 7.0 mph 10.0 mph 69 % 0.00 in
22:05 36.1 °F 26.9 °F 30.14 in West 3.2 mph 8.1 mph 69 % 0.00 in
22:10 36.0 °F 26.8 °F 30.14 in WSW 4.2 mph 5.8 mph 69 % 0.00 in
22:15 36.0 °F 26.8 °F 30.15 in West 2.9 mph 4.6 mph 69 % 0.00 in
22:20 35.9 °F 26.7 °F 30.15 in West 3.2 mph 5.8 mph 69 % 0.00 in
22:25 35.8 °F 26.6 °F 30.15 in WNW 3.7 mph 5.8 mph 69 % 0.00 in
22:30 35.7 °F 26.9 °F 30.15 in WSW 3.6 mph 6.0 mph 70 % 0.00 in
22:35 35.7 °F 26.9 °F 30.15 in West 4.5 mph 6.9 mph 70 % 0.00 in
22:40 35.6 °F 26.8 °F 30.15 in West 3.0 mph 5.8 mph 70 % 0.00 in
22:45 35.6 °F 26.8 °F 30.15 in West 3.6 mph 9.2 mph 70 % 0.00 in
22:56 35.5 °F 27.0 °F 30.15 in WNW 2.4 mph 6.9 mph 71 % 0.00 in
23:06 35.3 °F 27.2 °F 30.16 in WSW 2.4 mph 5.8 mph 72 % 0.00 in
23:11 35.3 °F 27.2 °F 30.16 in NNW 4.3 mph 5.8 mph 72 % 0.00 in
23:16 35.2 °F 27.1 °F 30.16 in West 5.9 mph 10.4 mph 72 % 0.00 in
23:21 35.2 °F 27.1 °F 30.16 in WSW 5.6 mph 8.1 mph 72 % 0.00 in
23:26 35.1 °F 27.0 °F 30.16 in West 2.2 mph 4.6 mph 72 % 0.00 in
23:31 35.0 °F 26.9 °F 30.16 in West 3.4 mph 6.9 mph 72 % 0.00 in
23:36 34.9 °F 26.8 °F 30.16 in West 4.0 mph 8.1 mph 72 % 0.00 in
23:47 34.9 °F 27.1 °F 30.16 in WSW 5.4 mph 9.2 mph 73 % 0.00 in
23:52 34.9 °F 27.5 °F 30.16 in WSW 4.5 mph 11.5 mph 74 % 0.00 in
23:57 34.9 °F 27.5 °F 30.17 in WNW 3.7 mph 6.9 mph 74 % 0.00 in
Crab Meadow Weather
Compliments of Weather Underground - 2.75 mb

Script developed by  Jim McMurry - jmcmurry@mwt.net Adapted for the template by  Wim van der Kuil - Leuven-Template.eu

Weather Terms: Winter Storms - These are weather hazards associated with freezing or frozen precipitation (freezing rain, sleet, snow) or combined effects of winter precipitation and strong winds.